Time;durP1;ratioP1;P1;durP2;ratioP2;P2;SDS_P1;SDS_P2;PMS_P1;PMS_P2;Temp;Humidity;BMP_temperature;BMP_pressure;BME280_temperature;BME280_humidity;BME280_pressure;Samples;Min_cycle;Max_cycle;Signal;HPM_P1;HPM_P2
2022/11/24 00:01:17;;;;;;;11.68;6.95;;;;;;;-1.80;85.13;99255.19;4879300;29;20099;-71
2022/11/24 00:03:43;;;;;;;12.65;7.20;;;;;;;-1.81;85.38;99257.00;4901280;28;20048;-72
2022/11/24 00:06:10;;;;;;;12.80;7.50;;;;;;;-1.85;84.84;99253.59;4903803;29;20559;-70
2022/11/24 00:08:37;;;;;;;13.45;7.18;;;;;;;-1.87;84.73;99254.53;4893048;29;20415;-69
2022/11/24 00:11:08;;;;;;;15.95;7.80;;;;;;;-1.89;85.23;99253.72;4921249;28;20501;-72
2022/11/24 00:13:33;;;;;;;12.43;7.32;;;;;;;-1.94;84.70;99251.25;4923099;28;20075;-70
2022/11/24 00:16:06;;;;;;;11.15;7.32;;;;;;;-1.91;84.84;99255.50;4885802;29;20091;-72
2022/11/24 00:18:30;;;;;;;12.05;7.28;;;;;;;-1.93;84.85;99255.56;4911398;28;20047;-70
2022/11/24 00:20:55;;;;;;;10.63;7.53;;;;;;;-1.92;84.65;99264.25;4886197;29;20043;-70
2022/11/24 00:23:19;;;;;;;11.35;7.50;;;;;;;-1.90;84.73;99267.66;4908380;28;20412;-70
2022/11/24 00:25:44;;;;;;;13.50;7.47;;;;;;;-1.93;84.65;99266.03;4919859;28;20054;-70
2022/11/24 00:28:09;;;;;;;11.65;7.07;;;;;;;-1.93;84.52;99265.16;4919723;28;20529;-70
2022/11/24 00:30:33;;;;;;;12.55;6.85;;;;;;;-1.94;84.32;99274.75;4919982;28;20052;-70
2022/11/24 00:32:58;;;;;;;12.40;6.80;;;;;;;-1.95;84.37;99257.38;4903086;29;20039;-72
2022/11/24 00:35:23;;;;;;;12.73;7.93;;;;;;;-1.97;84.23;99268.75;4910158;28;20421;-71
2022/11/24 00:37:47;;;;;;;13.50;8.18;;;;;;;-1.97;84.29;99273.97;4877503;29;20046;-72
2022/11/24 00:40:12;;;;;;;12.02;7.85;;;;;;;-1.99;84.35;99268.78;4918863;28;20132;-71
2022/11/24 00:42:36;;;;;;;13.13;7.80;;;;;;;-2.00;84.31;99269.69;4919445;28;20170;-72
2022/11/24 00:45:01;;;;;;;11.98;7.57;;;;;;;-2.01;84.41;99278.41;4902807;29;20418;-72
2022/11/24 00:47:27;;;;;;;10.57;6.10;;;;;;;-2.01;84.54;99275.78;4922929;28;20502;-72
2022/11/24 00:49:52;;;;;;;13.18;8.10;;;;;;;-2.03;84.34;99280.19;4898125;28;20510;-73
2022/11/24 00:52:16;;;;;;;14.48;8.65;;;;;;;-2.05;84.40;99291.59;4896032;29;20648;-72
2022/11/24 00:54:41;;;;;;;11.98;7.85;;;;;;;-2.06;84.38;99287.28;4895613;29;20051;-73
2022/11/24 00:57:06;;;;;;;11.93;7.13;;;;;;;-2.07;84.38;99294.25;4902154;29;20035;-71
2022/11/24 00:59:31;;;;;;;12.30;7.80;;;;;;;-2.06;84.39;99290.75;4902441;29;20053;-73
2022/11/24 01:01:56;;;;;;;12.35;7.72;;;;;;;-2.07;84.17;99296.88;4919454;28;20039;-71
2022/11/24 01:04:20;;;;;;;11.20;7.10;;;;;;;-2.08;83.72;99302.13;4902448;29;20049;-75
2022/11/24 01:06:45;;;;;;;18.00;8.63;;;;;;;-2.09;84.01;99301.25;4920605;29;20053;-74
2022/11/24 01:09:10;;;;;;;16.98;8.63;;;;;;;-2.09;83.66;99301.25;4902976;29;20097;-73
2022/11/24 01:14:19;;;;;;;13.85;8.63;;;;;;;-2.13;83.94;99309.19;4899786;29;20123;-71
2022/11/24 01:16:44;;;;;;;12.07;7.60;;;;;;;-2.15;84.22;99306.66;4916139;28;20631;-71
2022/11/24 01:19:09;;;;;;;14.20;8.18;;;;;;;-2.14;84.42;99303.13;4920195;29;20913;-73
2022/11/24 01:21:34;;;;;;;12.90;7.78;;;;;;;-2.15;84.20;99304.06;4918556;28;20066;-66
2022/11/24 01:23:58;;;;;;;14.40;7.65;;;;;;;-2.13;84.60;99310.06;4907553;28;20070;-68
2022/11/24 01:26:23;;;;;;;12.75;8.23;;;;;;;-2.11;84.23;99312.63;4910759;28;20093;-70
2022/11/24 01:28:52;;;;;;;11.82;7.55;;;;;;;-2.12;84.16;99305.69;4901870;29;20046;-70
2022/11/24 01:31:17;;;;;;;11.05;7.00;;;;;;;-2.12;84.51;99310.91;4893191;29;20054;-69
2022/11/24 01:33:41;;;;;;;10.40;6.63;;;;;;;-2.14;84.27;99313.56;4916612;28;20051;-70
2022/11/24 01:36:06;;;;;;;16.60;7.50;;;;;;;-2.17;84.13;99316.28;4920193;28;20091;-69
2022/11/24 01:38:31;;;;;;;12.45;7.57;;;;;;;-2.15;84.67;99318.84;4923307;28;20047;-72
2022/11/24 01:41:00;;;;;;;12.68;7.78;;;;;;;-2.09;84.87;99313.47;4896439;29;20054;-70
2022/11/24 01:43:25;;;;;;;9.35;5.72;;;;;;;-1.87;86.75;99317.22;4923101;28;20102;-69
2022/11/24 01:45:50;;;;;;;18.08;9.50;;;;;;;-2.17;86.85;99324.13;4925750;28;20059;-68
2022/11/24 01:48:22;;;;;;;14.68;7.65;;;;;;;-2.26;87.05;99319.97;4897262;28;20079;-67
2022/11/24 01:50:59;;;;;;;9.98;5.57;;;;;;;-2.27;87.19;99317.41;4913591;29;20074;-66
2022/11/24 01:53:24;;;;;;;13.02;7.60;;;;;;;-2.40;87.38;99329.03;4913477;28;20091;-67
2022/11/24 01:55:51;;;;;;;17.65;9.82;;;;;;;-2.39;87.44;99321.19;4903772;29;20048;-66
2022/11/24 01:58:26;;;;;;;13.05;7.25;;;;;;;-2.35;88.08;99329.78;4914322;28;20047;-66
2022/11/24 02:00:51;;;;;;;;;;;;;;;-2.37;88.12;99335.03;4902575;29;20043;-65
2022/11/24 02:03:17;;;;;;;;;;;;;;;-2.37;87.93;99342.84;4919508;28;19992;-67
2022/11/24 02:06:01;;;;;;;15.10;7.10;;;;;;;-2.36;87.96;99335.88;4918043;28;19981;-65
2022/11/24 02:08:31;;;;;;;15.82;7.85;;;;;;;-2.42;88.11;99346.50;4918115;28;20410;-65
2022/11/24 02:10:56;;;;;;;14.15;8.23;;;;;;;-2.47;87.95;99345.72;4883253;29;20036;-66
2022/11/24 02:13:21;;;;;;;14.77;8.18;;;;;;;-2.43;88.14;99350.00;4891729;29;20047;-66
2022/11/24 02:15:48;;;;;;;14.35;8.32;;;;;;;-2.46;88.34;99347.44;4901251;28;20047;-66
2022/11/24 02:18:12;;;;;;;16.90;8.65;;;;;;;-2.54;88.33;99347.63;4918508;28;20058;-63
2022/11/24 02:20:37;;;;;;;16.08;8.65;;;;;;;-2.60;88.18;99355.63;4918558;28;20461;-65
2022/11/24 02:23:18;;;;;;;13.27;8.00;;;;;;;-2.52;88.40;99355.44;4917447;28;20100;-66
2022/11/24 02:26:02;;;;;;;13.25;8.23;;;;;;;-2.50;88.40;99366.69;4917699;28;20051;-66
2022/11/24 02:28:29;;;;;;;13.80;8.35;;;;;;;-2.53;88.72;99365.00;4917503;28;20050;-66
2022/11/24 02:30:54;;;;;;;17.20;9.30;;;;;;;-2.54;88.32;99372.88;4871148;28;20525;-66
2022/11/24 02:33:21;;;;;;;13.93;8.27;;;;;;;-2.51;88.55;99370.19;4899727;29;20406;-66
2022/11/24 02:35:45;;;;;;;15.55;8.30;;;;;;;-2.63;88.03;99380.03;4917469;28;20126;-64
2022/11/24 02:38:12;;;;;;;15.38;9.95;;;;;;;-2.67;88.50;99370.53;4900402;28;20146;-68
2022/11/24 02:40:37;;;;;;;15.43;8.15;;;;;;;-2.66;88.38;99371.41;4885081;29;20138;-65
2022/11/24 02:43:06;;;;;;;13.82;8.23;;;;;;;-2.63;88.06;99371.34;4918581;28;20143;-67
2022/11/24 02:45:31;;;;;;;12.25;7.88;;;;;;;-2.62;88.12;99363.47;4918477;28;20077;-67
2022/11/24 02:47:56;;;;;;;16.83;9.23;;;;;;;-2.60;87.93;99361.69;4885330;29;20071;-70
2022/11/24 02:50:21;;;;;;;13.73;8.23;;;;;;;-2.68;87.92;99363.59;4917967;28;20046;-68
2022/11/24 02:52:45;;;;;;;13.80;8.15;;;;;;;-2.67;87.84;99354.88;4866174;29;20395;-72
2022/11/24 02:55:10;;;;;;;10.50;6.15;;;;;;;-2.50;88.05;99366.69;4900537;28;20047;-72
2022/11/24 02:57:34;;;;;;;14.27;7.85;;;;;;;-2.65;88.08;99373.13;4861153;29;20039;-71
2022/11/24 02:59:59;;;;;;;14.98;8.57;;;;;;;-2.73;87.92;99362.00;4910875;28;20066;-71
2022/11/24 03:02:24;;;;;;;14.70;8.43;;;;;;;-2.70;87.96;99368.00;4895718;29;20048;-80
2022/11/24 03:04:48;;;;;;;13.98;8.60;;;;;;;-2.67;88.26;99375.75;4900376;29;20383;-70
2022/11/24 03:07:13;;;;;;;16.77;8.23;;;;;;;-2.71;88.05;99376.72;4901404;28;20056;-69
2022/11/24 03:09:38;;;;;;;14.30;8.23;;;;;;;-2.79;87.91;99383.00;4919321;28;20043;-67
2022/11/24 03:12:03;;;;;;;12.98;8.23;;;;;;;-2.78;87.78;99390.78;4899102;29;20106;-65
2022/11/24 03:14:27;;;;;;;13.88;7.97;;;;;;;-2.79;87.88;99390.81;4888622;28;20062;-67
2022/11/24 03:16:52;;;;;;;15.93;8.63;;;;;;;-2.83;87.94;99383.97;4897329;29;20145;-73
2022/11/24 03:19:16;;;;;;;15.13;7.97;;;;;;;-2.80;nan;99392.56;4886969;29;20051;-76
2022/11/24 03:21:41;;;;;;;17.80;8.43;;;;;;;-2.84;87.93;99382.25;4900497;29;20047;-70
2022/11/24 03:24:06;;;;;;;15.73;7.65;;;;;;;-2.82;88.00;99396.13;4898289;29;20556;-70
2022/11/24 03:26:33;;;;;;;11.65;6.53;;;;;;;-2.82;87.78;99389.13;4899244;29;20118;-71
2022/11/24 03:28:58;;;;;;;12.45;7.15;;;;;;;-2.78;87.58;99388.19;4872834;29;20052;-69
2022/11/24 03:31:23;;;;;;;15.95;8.55;;;;;;;-2.76;87.38;99402.06;4880763;29;20048;-69
2022/11/24 03:33:47;;;;;;;12.68;7.45;;;;;;;-2.73;87.71;99417.66;4898893;29;20080;-73
2022/11/24 03:36:12;;;;;;;12.80;7.25;;;;;;;-2.71;87.07;99404.59;4880486;29;20115;-74
2022/11/24 03:38:37;;;;;;;11.55;7.55;;;;;;;-2.71;86.64;99394.97;4881517;29;20438;-73
2022/11/24 03:41:02;;;;;;;15.77;8.82;;;;;;;-2.71;86.58;99392.38;4878406;29;20075;-72
2022/11/24 03:43:28;;;;;;;13.65;8.50;;;;;;;-2.72;86.30;99402.84;4877615;29;20551;-73
2022/11/24 03:45:52;;;;;;;14.50;7.53;;;;;;;-2.74;86.09;99386.38;4883985;29;20067;-74
2022/11/24 03:48:20;;;;;;;12.82;7.72;;;;;;;-2.73;86.33;99398.53;4885388;29;20074;-73
2022/11/24 03:50:52;;;;;;;12.10;7.35;;;;;;;-2.75;86.36;99403.78;4870938;29;20503;-73
2022/11/24 03:53:17;;;;;;;13.88;8.38;;;;;;;-2.80;86.30;99408.22;4873660;29;20036;-72
2022/11/24 03:55:42;;;;;;;14.02;8.10;;;;;;;-2.81;85.67;99409.09;4871652;29;20058;-72
2022/11/24 03:58:06;;;;;;;12.40;7.20;;;;;;;-2.80;86.14;99415.19;4890134;29;20099;-73
2022/11/24 04:00:31;;;;;;;11.50;8.07;;;;;;;-2.77;85.71;99420.34;4885840;29;20048;-75
2022/11/24 04:02:56;;;;;;;12.25;8.07;;;;;;;-2.77;85.34;99426.44;4886800;29;20048;-72
2022/11/24 04:05:21;;;;;;;11.63;7.50;;;;;;;-2.76;84.69;99422.94;4889968;29;20036;-76
2022/11/24 04:07:45;;;;;;;12.30;7.20;;;;;;;-2.78;84.99;99424.72;4902580;29;20086;-77
2022/11/24 04:10:10;;;;;;;15.23;8.48;;;;;;;-2.77;84.64;99426.44;4902881;29;20071;-77
2022/11/24 04:12:43;;;;;;;14.95;8.27;;;;;;;-2.77;84.80;99430.78;4902976;29;20032;-77
2022/11/24 04:15:10;;;;;;;11.48;7.22;;;;;;;-2.79;84.84;99428.19;4869967;29;20051;-75
2022/11/24 04:17:35;;;;;;;14.50;8.25;;;;;;;-2.83;84.51;99429.19;4917180;28;20091;-71
2022/11/24 04:19:59;;;;;;;14.43;8.52;;;;;;;-2.85;84.62;99438.78;4901923;28;20078;-72
2022/11/24 04:22:24;;;;;;;13.00;7.47;;;;;;;-2.86;84.42;99433.59;4902802;29;20070;-72
2022/11/24 04:24:49;;;;;;;13.35;7.60;;;;;;;-2.86;84.56;99437.06;4903027;29;20043;-72
2022/11/24 04:27:13;;;;;;;14.32;7.93;;;;;;;-2.88;84.34;99438.84;4903550;29;20525;-71
2022/11/24 04:29:38;;;;;;;14.50;7.97;;;;;;;-2.90;84.29;99438.00;4903805;29;20047;-73
2022/11/24 04:32:03;;;;;;;13.52;8.25;;;;;;;-2.86;84.28;99438.81;4901470;29;20079;-72
2022/11/24 04:34:27;;;;;;;8.13;4.68;;;;;;;-2.79;84.89;99436.03;4902158;28;20074;-71
2022/11/24 04:36:52;;;;;;;10.82;6.68;;;;;;;-2.85;85.42;99444.00;4905177;29;20074;-72
2022/11/24 04:39:17;;;;;;;13.77;8.20;;;;;;;-2.92;85.71;99445.84;4922322;28;20122;-73
2022/11/24 04:41:42;;;;;;;15.32;8.00;;;;;;;-2.92;85.42;99445.00;4903734;29;20039;-73
2022/11/24 04:44:06;;;;;;;15.05;8.98;;;;;;;-2.90;85.34;99444.97;4903786;29;20058;-72
2022/11/24 04:46:31;;;;;;;13.73;8.27;;;;;;;-2.92;84.78;99437.16;4887951;28;20040;-71
2022/11/24 04:48:56;;;;;;;13.90;8.55;;;;;;;-2.86;85.29;99449.25;4902987;29;20050;-72
2022/11/24 04:51:21;;;;;;;13.63;8.45;;;;;;;-2.84;84.48;99471.81;4886738;29;20047;-73
2022/11/24 04:53:47;;;;;;;13.40;8.32;;;;;;;-2.83;84.03;99467.44;4919452;28;20529;-72
2022/11/24 04:56:12;;;;;;;13.75;6.57;;;;;;;-2.84;83.90;99465.72;4902087;28;20049;-70
2022/11/24 04:58:36;;;;;;;11.77;7.07;;;;;;;-2.83;83.63;99473.53;4919183;28;20043;-72
2022/11/24 05:01:05;;;;;;;16.50;8.57;;;;;;;-2.84;83.39;99477.03;4893781;29;20043;-71
2022/11/24 05:03:30;;;;;;;11.18;7.00;;;;;;;-2.87;82.61;99481.44;4915010;28;20059;-71
2022/11/24 05:05:58;;;;;;;19.52;10.93;;;;;;;-2.84;82.61;99478.75;4902591;29;20052;-72
2022/11/24 05:08:23;;;;;;;21.92;11.00;;;;;;;-2.86;82.14;99483.16;4902585;29;20054;-72
2022/11/24 05:10:47;;;;;;;18.70;9.98;;;;;;;-2.84;81.75;99497.88;4867754;29;20039;-72
2022/11/24 05:13:12;;;;;;;14.77;8.15;;;;;;;-2.82;81.47;99490.88;4911275;28;20122;-73
2022/11/24 05:15:39;;;;;;;15.27;7.88;;;;;;;-2.81;81.84;99492.59;4919358;28;20410;-73
2022/11/24 05:18:05;;;;;;;15.20;7.72;;;;;;;-2.84;82.08;99487.44;4901867;29;20055;-71
2022/11/24 05:20:30;;;;;;;17.80;9.05;;;;;;;-2.85;82.44;99508.34;4888377;28;20036;-73
2022/11/24 05:22:55;;;;;;;17.27;8.18;;;;;;;-2.87;82.69;99497.94;4902029;29;20062;-73
2022/11/24 05:25:19;;;;;;;15.27;7.10;;;;;;;-2.80;83.30;99507.34;4890165;29;20051;-72
2022/11/24 05:27:44;;;;;;;14.68;7.95;;;;;;;-2.76;85.36;99500.34;4902498;29;20054;-73
2022/11/24 05:30:09;;;;;;;13.88;7.55;;;;;;;-2.82;85.76;99506.50;4902460;29;20055;-72
2022/11/24 05:32:34;;;;;;;15.52;8.68;;;;;;;-2.99;86.19;99504.25;4919709;28;20047;-73
2022/11/24 05:35:01;;;;;;;17.30;8.95;;;;;;;-3.09;86.38;99515.75;4899726;29;20035;-76
2022/11/24 05:37:27;;;;;;;17.42;9.57;;;;;;;-3.11;86.21;99508.84;4902575;29;20047;-72
2022/11/24 05:39:53;;;;;;;16.98;10.25;;;;;;;-3.07;86.53;99520.94;4887556;28;20042;-72
2022/11/24 05:45:01;;;;;;;13.20;8.45;;;;;;;-3.04;85.99;99529.53;4908261;28;20129;-73
2022/11/24 05:47:27;;;;;;;18.58;9.73;;;;;;;-2.96;86.57;99529.41;4887513;29;20391;-75
2022/11/24 05:49:52;;;;;;;20.02;8.90;;;;;;;-2.98;86.26;99534.66;4890088;28;20047;-73
2022/11/24 05:52:17;;;;;;;18.20;11.10;;;;;;;-2.79;86.87;99539.50;4868906;29;20043;-73
2022/11/24 05:54:42;;;;;;;17.58;10.52;;;;;;;-2.97;86.88;99543.34;4913272;28;20082;-73
2022/11/24 05:57:06;;;;;;;14.75;8.93;;;;;;;-2.99;86.40;99542.50;4868928;29;20198;-73
2022/11/24 05:59:31;;;;;;;17.52;10.40;;;;;;;-2.82;87.28;99552.63;4893087;29;20072;-74
2022/11/24 06:01:56;;;;;;;18.10;10.15;;;;;;;-2.90;86.82;99557.97;4885414;28;20097;-74
2022/11/24 06:04:20;;;;;;;17.08;9.73;;;;;;;-3.03;86.82;99559.09;4909767;28;20113;-74
2022/11/24 06:06:45;;;;;;;16.92;9.18;;;;;;;-3.02;86.64;99559.06;4901485;28;20494;-73
2022/11/24 06:09:10;;;;;;;16.80;10.18;;;;;;;-2.99;86.99;99560.75;4866500;29;20499;-73
2022/11/24 06:11:35;;;;;;;17.90;9.68;;;;;;;-2.94;86.74;99561.56;4901385;29;20520;-70
2022/11/24 06:13:59;;;;;;;18.40;10.32;;;;;;;-2.89;86.49;99562.31;4900828;29;20387;-70
2022/11/24 06:16:24;;;;;;;18.48;10.80;;;;;;;-2.82;86.16;99563.06;4900905;29;20055;-72
2022/11/24 06:18:48;;;;;;;12.98;8.70;;;;;;;-2.79;85.83;99583.88;4900807;28;20506;-70
2022/11/24 06:21:13;;;;;;;11.50;7.35;;;;;;;-2.75;85.01;99573.34;4885145;29;20053;-70
2022/11/24 06:23:38;;;;;;;15.73;9.07;;;;;;;-2.66;85.79;99590.56;4900885;29;20581;-70
2022/11/24 06:26:03;;;;;;;15.07;8.70;;;;;;;-2.77;85.54;99582.94;4882565;29;20100;-71
2022/11/24 06:28:28;;;;;;;12.15;7.75;;;;;;;-2.76;84.78;99589.91;4909320;28;20047;-71
2022/11/24 06:30:53;;;;;;;13.40;9.07;;;;;;;-2.73;84.34;99587.25;4918936;28;20950;-71
2022/11/24 06:33:18;;;;;;;14.35;8.55;;;;;;;-2.67;83.76;99584.50;4898094;29;20044;-73
2022/11/24 06:35:42;;;;;;;15.85;9.23;;;;;;;-2.64;83.25;99584.44;4919980;28;20073;-71
2022/11/24 06:38:07;;;;;;;16.08;9.85;;;;;;;-2.60;82.74;99583.50;4922511;28;20047;-72
2022/11/24 06:40:32;;;;;;;16.25;8.35;;;;;;;-2.56;82.57;99598.19;4920191;28;20049;-74
2022/11/24 06:42:56;;;;;;;11.70;7.72;;;;;;;-2.53;82.08;99583.38;4901638;28;20094;-72
2022/11/24 06:45:22;;;;;;;16.48;8.73;;;;;;;-2.51;81.65;99586.81;4917977;28;20047;-71
2022/11/24 06:47:46;;;;;;;14.68;8.68;;;;;;;-2.47;81.25;99591.06;4897486;29;20047;-70
2022/11/24 06:50:11;;;;;;;13.55;8.45;;;;;;;-2.43;81.05;99588.38;4915895;28;20043;-71
2022/11/24 06:52:36;;;;;;;15.48;8.40;;;;;;;-2.36;80.71;99587.34;4897627;29;20038;-73
2022/11/24 06:55:00;;;;;;;15.43;9.18;;;;;;;-2.32;81.41;99586.41;4896329;28;20581;-73
2022/11/24 06:57:28;;;;;;;14.02;7.95;;;;;;;-2.33;81.59;99586.44;4918432;28;20045;-73
2022/11/24 06:59:52;;;;;;;14.82;8.75;;;;;;;-2.33;81.18;99584.69;4888201;29;20498;-71
2022/11/24 07:02:17;;;;;;;14.80;8.77;;;;;;;-2.31;81.07;99592.50;4918329;28;20118;-72
2022/11/24 07:04:42;;;;;;;15.38;9.38;;;;;;;-2.24;81.16;99599.31;4919001;28;20106;-72
2022/11/24 07:07:06;;;;;;;14.10;7.95;;;;;;;-2.29;81.96;99596.81;4889603;28;20406;-73
2022/11/24 07:09:31;;;;;;;17.38;9.18;;;;;;;-2.32;81.42;99591.63;4899474;29;20106;-71
2022/11/24 07:11:56;;;;;;;12.82;7.80;;;;;;;-2.34;81.09;99597.78;4915243;28;20097;-72
2022/11/24 07:14:21;;;;;;;14.82;9.35;;;;;;;-2.26;81.87;99596.72;4885141;29;20046;-73
2022/11/24 07:16:45;;;;;;;15.73;9.60;;;;;;;-2.18;84.08;99595.72;4884770;29;20395;-72
2022/11/24 07:19:10;;;;;;;18.67;11.30;;;;;;;-2.40;84.04;99595.31;4917743;28;20613;-72
2022/11/24 07:21:35;;;;;;;15.63;8.43;;;;;;;-2.47;83.80;99599.75;4920856;28;20043;-71
2022/11/24 07:23:59;;;;;;;18.40;8.80;;;;;;;-2.48;83.82;99595.44;4887882;28;20050;-71
2022/11/24 07:26:25;;;;;;;14.23;9.07;;;;;;;-2.47;83.38;99589.31;4921227;28;20405;-71
2022/11/24 07:28:50;;;;;;;15.60;9.57;;;;;;;-2.49;83.10;99587.66;4920736;28;20050;-72
2022/11/24 07:31:17;;;;;;;12.63;8.50;;;;;;;-2.50;82.11;99591.16;4887917;29;20035;-72
2022/11/24 07:33:42;;;;;;;14.93;8.80;;;;;;;-2.49;81.96;99592.88;4905437;29;20043;-75
2022/11/24 07:36:08;;;;;;;9.65;5.43;;;;;;;-2.33;82.70;99591.66;4905816;29;20521;-75
2022/11/24 07:38:33;;;;;;;21.27;10.02;;;;;;;-2.40;84.05;99590.06;4905753;29;20047;-77
2022/11/24 07:41:02;;;;;;;18.55;10.57;;;;;;;-2.47;83.73;99586.72;4923031;28;20043;-74
2022/11/24 07:43:29;;;;;;;15.75;9.05;;;;;;;-2.47;83.61;99591.94;4921407;28;20046;-76
2022/11/24 07:45:54;;;;;;;14.77;8.75;;;;;;;-2.42;83.31;99594.47;4923015;28;20126;-76
2022/11/24 07:48:18;;;;;;;14.38;8.70;;;;;;;-2.38;82.47;99593.53;4889970;28;20136;-75
2022/11/24 07:50:43;;;;;;;16.15;9.38;;;;;;;-2.35;82.24;99590.81;4922711;28;20049;-75
2022/11/24 07:53:08;;;;;;;14.73;8.00;;;;;;;-2.32;81.45;99599.47;4889907;28;20051;-72
2022/11/24 07:55:33;;;;;;;15.13;8.82;;;;;;;-2.29;81.06;99604.63;4903564;29;20142;-73
2022/11/24 07:57:58;;;;;;;17.65;10.25;;;;;;;-2.21;80.84;99614.91;4887523;29;20773;-72
2022/11/24 08:00:23;;;;;;;15.85;8.38;;;;;;;-2.16;80.23;99609.63;4903273;29;20054;-73
2022/11/24 08:02:48;;;;;;;15.82;9.23;;;;;;;-2.09;79.50;99609.44;4884140;29;20058;-72
2022/11/24 08:05:12;;;;;;;14.80;8.52;;;;;;;-2.02;79.16;99631.91;4914750;28;20513;-73
2022/11/24 08:07:38;;;;;;;13.88;9.23;;;;;;;-1.92;78.40;99624.78;4903812;29;20074;-73
2022/11/24 08:10:03;;;;;;;15.88;9.15;;;;;;;-1.86;78.24;99622.00;4921113;28;20045;-73
2022/11/24 08:12:28;;;;;;;19.08;9.65;;;;;;;-1.82;77.79;99623.69;4922728;28;20037;-74
2022/11/24 08:14:52;;;;;;;18.45;8.75;;;;;;;-1.73;78.85;99622.59;4907892;29;20138;-74
2022/11/24 08:17:17;;;;;;;20.00;11.85;;;;;;;-1.78;80.62;99621.84;4920567;28;20062;-73
2022/11/24 08:19:42;;;;;;;17.70;12.27;;;;;;;-1.76;82.29;99633.13;4921986;28;20109;-73
2022/11/24 08:22:07;;;;;;;22.48;12.00;;;;;;;-1.88;82.22;99629.88;4904531;28;20139;-72
2022/11/24 08:24:32;;;;;;;19.95;11.73;;;;;;;-1.92;81.61;99640.44;4905929;29;20122;-77
2022/11/24 08:26:56;;;;;;;18.58;11.13;;;;;;;-1.89;82.15;99646.44;4933299;28;20047;-77
2022/11/24 08:29:21;;;;;;;17.85;9.95;;;;;;;-1.88;81.50;99642.09;4935533;28;20054;-78
2022/11/24 08:31:46;;;;;;;20.63;10.35;;;;;;;-1.84;80.79;99647.22;4920567;28;20057;-77
2022/11/24 08:34:10;;;;;;;19.33;12.52;;;;;;;-1.72;83.10;99655.69;4891814;28;20048;-76
2022/11/24 08:36:35;;;;;;;22.85;13.38;;;;;;;-1.78;83.78;99658.41;4888098;29;20079;-77
2022/11/24 08:39:01;;;;;;;27.42;13.77;;;;;;;-1.92;84.10;99656.94;4894430;29;20903;-76
2022/11/24 08:41:27;;;;;;;22.67;12.70;;;;;;;-1.95;83.76;99657.03;4916947;28;20042;-79
2022/11/24 08:43:53;;;;;;;22.23;13.32;;;;;;;-1.96;84.07;99677.97;4882385;29;20078;-79
2022/11/24 08:46:18;;;;;;;21.52;14.35;;;;;;;-1.99;84.34;99668.44;4901265;29;20039;-80
2022/11/24 08:48:47;;;;;;;22.90;13.02;;;;;;;-2.01;84.22;99677.19;4924524;28;20418;-79
2022/11/24 08:51:14;;;;;;;22.73;13.52;;;;;;;-2.06;84.45;99677.28;4891623;29;20046;-79
2022/11/24 08:53:40;;;;;;;28.30;13.63;;;;;;;-2.08;84.09;99672.97;4909355;29;20545;-77
2022/11/24 08:56:05;;;;;;;23.45;13.57;;;;;;;-2.08;84.16;99668.63;4923588;28;20039;-77
2022/11/24 08:58:31;;;;;;;17.23;11.73;;;;;;;-2.01;83.69;99675.44;4921799;28;20043;-72
2022/11/24 09:01:07;;;;;;;21.15;12.38;;;;;;;-1.92;82.66;99675.25;4919778;28;20054;-72
2022/11/24 09:03:31;;;;;;;22.65;11.48;;;;;;;-1.84;82.17;99682.94;4902456;28;20047;-73
2022/11/24 09:05:56;;;;;;;22.27;14.05;;;;;;;-1.79;83.17;99682.81;4886680;29;20135;-71
2022/11/24 09:08:21;;;;;;;21.42;12.63;;;;;;;-1.76;81.77;99690.59;4867757;29;20511;-71
2022/11/24 09:10:46;;;;;;;18.30;10.23;;;;;;;-1.70;80.92;99691.34;4917144;28;20580;-72
2022/11/24 09:13:10;;;;;;;18.75;11.15;;;;;;;-1.66;79.76;99679.94;4919338;28;20058;-71
2022/11/24 09:15:35;;;;;;;19.67;10.70;;;;;;;-1.65;79.39;99688.63;4901848;28;20046;-72
2022/11/24 09:17:59;;;;;;;24.65;12.02;;;;;;;-1.70;78.52;99683.53;4899238;29;20059;-72
2022/11/24 09:20:24;;;;;;;15.65;10.43;;;;;;;-1.76;78.44;99682.78;4913250;28;20047;-71
2022/11/24 09:22:49;;;;;;;18.83;10.73;;;;;;;-1.73;78.75;99691.41;4920098;28;20039;-70
2022/11/24 09:25:13;;;;;;;19.48;12.75;;;;;;;-1.77;81.25;99687.13;4886527;29;20100;-70
2022/11/24 09:27:38;;;;;;;23.98;13.50;;;;;;;-1.66;82.50;99681.69;4915043;28;20307;-69
2022/11/24 09:30:03;;;;;;;27.23;14.85;;;;;;;-1.86;83.10;99679.50;4894333;29;20089;-76
2022/11/24 09:32:29;;;;;;;26.58;15.60;;;;;;;-1.95;82.73;99690.13;4923524;28;20047;-71
2022/11/24 09:34:54;;;;;;;31.10;15.55;;;;;;;-2.06;83.05;99687.75;4897668;29;20047;-71
2022/11/24 09:37:19;;;;;;;22.05;13.20;;;;;;;-2.21;83.25;99688.03;4918886;28;20047;-69
2022/11/24 09:39:43;;;;;;;25.85;13.20;;;;;;;-2.24;83.12;99688.06;4918595;28;20087;-71
2022/11/24 09:42:30;;;;;;;21.90;13.05;;;;;;;-2.17;83.51;99687.09;4918490;28;20038;-69
2022/11/24 09:44:58;;;;;;;22.67;11.90;;;;;;;-2.15;82.97;99685.31;4901635;29;20093;-70
2022/11/24 09:47:41;;;;;;;20.52;12.05;;;;;;;-2.12;83.01;99685.22;4918833;28;20395;-73
2022/11/24 09:50:17;;;;;;;16.33;10.57;;;;;;;-2.02;81.87;99692.00;4888432;28;20058;-72
2022/11/24 09:52:58;;;;;;;19.13;10.88;;;;;;;-2.00;81.61;99690.22;4902970;29;20086;-71
2022/11/24 09:55:39;;;;;;;16.92;10.93;;;;;;;-1.94;80.65;99690.09;4892138;29;20058;-72
2022/11/24 09:58:17;;;;;;;17.52;10.23;;;;;;;-1.93;79.69;99689.22;4920772;28;20106;-71
2022/11/24 10:00:42;;;;;;;15.60;9.63;;;;;;;-1.88;79.48;99692.59;4912466;28;20513;-72
2022/11/24 10:03:15;;;;;;;16.95;10.23;;;;;;;-1.80;78.96;99687.19;4898860;28;20447;-72
2022/11/24 10:05:41;;;;;;;17.02;9.93;;;;;;;-1.79;78.64;99693.28;4899831;28;20550;-74
2022/11/24 10:08:34;;;;;;;16.90;10.77;;;;;;;-1.72;78.83;99693.13;4900806;29;20067;-80
2022/11/24 10:11:01;;;;;;;15.63;10.05;;;;;;;-1.76;78.02;99688.00;4894698;29;20047;-73
2022/11/24 10:13:45;;;;;;;17.10;10.48;;;;;;;-1.69;78.70;99695.66;4896567;29;20040;-73
2022/11/24 10:16:56;;;;;;;20.25;9.57;;;;;;;-1.66;78.70;99700.84;4918984;28;20080;-72
2022/11/24 10:19:30;;;;;;;21.35;11.15;;;;;;;-1.68;78.63;99700.00;4869273;29;20088;-72
2022/11/24 10:22:03;;;;;;;22.05;9.57;;;;;;;-1.60;80.09;99699.84;4863087;29;20063;-70
2022/11/24 10:24:47;;;;;;;28.17;13.40;;;;;;;-1.63;81.88;99702.53;4869550;29;20131;-73
2022/11/24 10:27:32;;;;;;;21.40;12.38;;;;;;;-1.67;82.35;99706.09;4876946;29;20104;-72
2022/11/24 10:29:59;;;;;;;20.80;11.85;;;;;;;-1.87;81.81;99709.13;4887816;29;20432;-79
2022/11/24 10:32:41;;;;;;;25.30;14.20;;;;;;;-2.01;82.01;99713.75;4852950;29;20212;-77
2022/11/24 10:35:21;;;;;;;21.92;13.27;;;;;;;-2.10;82.02;99708.72;4881607;29;20071;-78
2022/11/24 10:37:56;;;;;;;20.60;12.82;;;;;;;-2.09;82.11;99713.91;4890359;29;20064;-80
2022/11/24 10:40:26;;;;;;;22.20;13.00;;;;;;;-2.06;82.23;99719.09;4876178;29;20054;-78
2022/11/24 10:42:51;;;;;;;22.13;14.02;;;;;;;-2.08;82.34;99725.22;4877434;29;20081;-75
2022/11/24 10:45:21;;;;;;;25.73;14.85;;;;;;;-2.16;81.89;99728.00;4886088;29;20020;-80
2022/11/24 10:47:45;;;;;;;20.90;11.90;;;;;;;-2.22;81.49;99717.63;4891869;29;20059;-78
2022/11/24 10:50:39;;;;;;;21.25;12.05;;;;;;;-2.24;80.84;99717.66;4877851;29;20509;-80
2022/11/24 10:53:13;;;;;;;22.90;12.70;;;;;;;-2.32;80.88;99724.78;4875308;29;20082;-78
2022/11/24 10:55:57;;;;;;;21.33;12.55;;;;;;;-2.31;80.45;99730.88;4900924;29;20066;-73
2022/11/24 10:58:32;;;;;;;20.60;10.60;;;;;;;-2.31;80.24;99726.50;4910915;28;20142;-72
2022/11/24 11:01:00;;;;;;;21.55;13.75;;;;;;;-2.40;80.83;99725.81;4925268;28;20472;-74
2022/11/24 11:03:46;;;;;;;22.65;13.30;;;;;;;-2.41;80.24;99731.94;4895479;28;20111;-72
2022/11/24 11:06:20;;;;;;;20.90;12.00;;;;;;;-2.45;80.03;99733.72;4907330;29;20130;-71
2022/11/24 11:08:44;;;;;;;22.80;12.15;;;;;;;-2.48;79.29;99746.00;4896264;28;20058;-70
2022/11/24 11:11:27;;;;;;;20.10;11.20;;;;;;;-2.49;79.33;99739.91;4926498;28;20209;-70
2022/11/24 11:13:59;;;;;;;22.88;12.07;;;;;;;-2.57;79.23;99741.75;4866162;29;20156;-70
2022/11/24 11:16:51;;;;;;;20.48;11.70;;;;;;;-2.57;79.42;99732.19;4860854;29;20056;-70
2022/11/24 11:19:37;;;;;;;19.83;11.93;;;;;;;-2.54;79.64;99725.19;4866286;29;20048;-72
2022/11/24 11:22:15;;;;;;;20.92;11.52;;;;;;;-2.56;79.57;99733.91;4834069;29;20052;-72
2022/11/24 11:24:45;;;;;;;22.25;12.70;;;;;;;-2.57;79.75;99733.94;4865528;29;20055;-71
2022/11/24 11:27:18;;;;;;;19.02;11.57;;;;;;;-2.54;79.62;99731.28;4845652;29;20048;-73
2022/11/24 11:29:45;;;;;;;16.95;11.02;;;;;;;-2.54;79.64;99727.81;4865381;29;20399;-71